Time;durP1;ratioP1;P1;durP2;ratioP2;P2;SDS_P1;SDS_P2;PMS_P1;PMS_P2;Temp;Humidity;BMP_temperature;BMP_pressure;BME280_temperature;BME280_humidity;BME280_pressure;Samples;Min_cycle;Max_cycle;Signal;HPM_P1;HPM_P2
2022/09/05 00:02:00;;;;;;;6.93;3.72;;;19.00;65.90;;;;;;4981836;28;20504;-73
2022/09/05 00:04:29;;;;;;;7.32;3.35;;;18.90;65.90;;;;;;4973494;28;20046;-74
2022/09/05 00:07:28;;;;;;;9.10;3.67;;;18.90;65.80;;;;;;4985583;28;20125;-73
2022/09/05 00:10:18;;;;;;;7.00;3.40;;;18.90;65.40;;;;;;4961495;28;20114;-73
2022/09/05 00:12:45;;;;;;;6.85;3.33;;;18.90;65.50;;;;;;4989144;28;20050;-73
2022/09/05 00:15:35;;;;;;;5.57;3.38;;;18.90;65.60;;;;;;4984160;28;20060;-74
2022/09/05 00:18:34;;;;;;;7.40;3.50;;;18.80;65.70;;;;;;4981751;28;20034;-75
2022/09/05 00:21:09;;;;;;;6.13;2.85;;;18.80;65.60;;;;;;4985114;28;20109;-73
2022/09/05 00:24:03;;;;;;;7.20;3.60;;;18.80;65.60;;;;;;4982480;28;20042;-72
2022/09/05 00:26:41;;;;;;;6.38;3.45;;;18.80;65.60;;;;;;4982160;28;20037;-75
2022/09/05 00:29:34;;;;;;;6.28;3.40;;;18.80;65.80;;;;;;4984260;28;20105;-73
2022/09/05 00:32:12;;;;;;;7.65;3.47;;;18.80;65.90;;;;;;4987062;28;20371;-72
2022/09/05 00:34:50;;;;;;;7.05;2.70;;;18.70;65.90;;;;;;4983571;28;20102;-73
2022/09/05 00:37:38;;;;;;;7.68;3.55;;;18.80;65.80;;;;;;4982207;28;20047;-73
2022/09/05 00:40:24;;;;;;;5.93;3.22;;;18.70;65.70;;;;;;4979395;28;20219;-74
2022/09/05 00:42:54;;;;;;;6.28;3.42;;;18.70;65.70;;;;;;4985289;28;20076;-73
2022/09/05 00:45:30;;;;;;;5.18;2.97;;;18.70;65.80;;;;;;4986046;28;20038;-75
2022/09/05 00:48:04;;;;;;;4.82;2.80;;;18.70;65.90;;;;;;4987340;28;20427;-73
2022/09/05 00:50:35;;;;;;;7.57;3.33;;;18.70;65.90;;;;;;4966914;28;20042;-73
2022/09/05 00:53:19;;;;;;;6.30;3.10;;;18.70;65.80;;;;;;4965031;28;20487;-75
2022/09/05 00:56:12;;;;;;;6.57;3.20;;;18.70;65.80;;;;;;4965044;28;20046;-74
2022/09/05 00:58:57;;;;;;;6.57;3.47;;;18.70;65.60;;;;;;4971855;28;20491;-73
2022/09/05 01:01:29;;;;;;;5.47;3.00;;;18.70;65.60;;;;;;4967997;28;20076;-73
2022/09/05 01:04:31;;;;;;;6.45;3.67;;;18.80;65.50;;;;;;4971383;28;20051;-75
2022/09/05 01:06:57;;;;;;;6.38;3.35;;;18.80;65.40;;;;;;4985684;28;20044;-73
2022/09/05 01:09:44;;;;;;;6.68;3.58;;;18.80;65.30;;;;;;4989331;28;20118;-72
2022/09/05 01:12:44;;;;;;;8.25;3.35;;;18.80;65.20;;;;;;4987039;28;20035;-73
2022/09/05 01:15:25;;;;;;;6.18;3.10;;;18.80;65.20;;;;;;4983751;28;20096;-73
2022/09/05 01:18:18;;;;;;;6.10;3.33;;;18.80;65.40;;;;;;4987159;28;20053;-72
2022/09/05 01:20:59;;;;;;;6.65;3.33;;;18.70;65.60;;;;;;4965553;28;20034;-73
2022/09/05 01:23:47;;;;;;;7.60;3.20;;;18.70;65.70;;;;;;4963367;28;20150;-74
2022/09/05 01:26:15;;;;;;;7.45;3.60;;;18.70;65.70;;;;;;4969312;28;20038;-72
2022/09/05 01:29:00;;;;;;;6.28;3.20;;;18.70;65.60;;;;;;4967756;28;20098;-74
2022/09/05 01:31:39;;;;;;;6.68;3.35;;;18.60;65.70;;;;;;4969225;28;20045;-70
2022/09/05 01:34:47;;;;;;;10.02;3.83;;;18.60;65.90;;;;;;4966516;28;20130;-73
2022/09/05 01:37:21;;;;;;;8.43;3.95;;;18.60;66.10;;;;;;4968289;28;20051;-73
2022/09/05 01:40:05;;;;;;;7.00;3.50;;;18.60;66.00;;;;;;4968349;28;20038;-71
2022/09/05 01:43:08;;;;;;;8.25;3.67;;;18.60;66.10;;;;;;4971244;28;20042;-73
2022/09/05 01:45:45;;;;;;;6.40;3.13;;;18.50;66.20;;;;;;4964671;28;20039;-73
2022/09/05 01:48:23;;;;;;;6.50;3.20;;;18.60;66.30;;;;;;4967250;28;20039;-73
2022/09/05 01:50:54;;;;;;;6.20;3.22;;;18.50;66.40;;;;;;4970182;28;20035;-71
2022/09/05 01:53:37;;;;;;;8.27;3.35;;;18.50;66.50;;;;;;4968732;28;20070;-77
2022/09/05 01:56:44;;;;;;;5.68;3.20;;;18.50;66.50;;;;;;4974819;28;20499;-73
2022/09/05 01:59:21;;;;;;;7.47;3.40;;;18.50;66.70;;;;;;4967371;28;20133;-72
2022/09/05 02:02:05;;;;;;;7.40;3.55;;;18.50;67.00;;;;;;4969565;28;20035;-71
2022/09/05 02:04:36;;;;;;;7.13;4.00;;;18.40;67.20;;;;;;4986388;28;20049;-74
2022/09/05 02:07:35;;;;;;;9.27;4.10;;;18.40;67.30;;;;;;4983937;28;20046;-72
2022/09/05 02:10:23;;;;;;;6.40;3.40;;;18.30;67.50;;;;;;4966868;28;20045;-74
2022/09/05 02:13:10;;;;;;;6.05;3.35;;;18.40;67.60;;;;;;4964631;28;20054;-72
2022/09/05 02:16:16;;;;;;;6.05;3.35;;;18.30;67.70;;;;;;4966721;28;20034;-72
2022/09/05 02:19:07;;;;;;;6.82;3.80;;;18.30;67.80;;;;;;4967544;28;20046;-72
2022/09/05 02:21:34;;;;;;;9.60;3.85;;;18.30;67.90;;;;;;4969220;28;20046;-75
2022/09/05 02:24:12;;;;;;;7.43;3.88;;;18.30;68.00;;;;;;4971346;28;20109;-71
2022/09/05 02:27:03;;;;;;;5.75;3.60;;;18.30;68.10;;;;;;4965077;28;20376;-71
2022/09/05 02:29:38;;;;;;;8.30;4.00;;;18.20;68.30;;;;;;4968679;28;20134;-71
2022/09/05 02:32:20;;;;;;;6.47;3.72;;;18.20;68.50;;;;;;4973499;28;20122;-74
2022/09/05 02:35:02;;;;;;;7.05;3.45;;;18.30;68.40;;;;;;4971877;28;20071;-72
2022/09/05 02:37:52;;;;;;;7.35;3.83;;;18.40;67.90;;;;;;4973696;28;20043;-71
2022/09/05 02:40:36;;;;;;;5.97;3.70;;;18.60;67.60;;;;;;4967074;28;20043;-71
2022/09/05 02:43:41;;;;;;;6.65;3.70;;;18.60;67.30;;;;;;4966340;28;20090;-73
2022/09/05 02:46:48;;;;;;;7.28;3.47;;;18.60;67.30;;;;;;4965102;28;20050;-71
2022/09/05 02:49:26;;;;;;;7.60;3.35;;;18.80;67.00;;;;;;4977140;28;20045;-72
2022/09/05 02:52:06;;;;;;;7.63;3.38;;;18.80;66.80;;;;;;4985409;28;20093;-72
2022/09/05 02:54:37;;;;;;;7.75;3.00;;;18.80;66.50;;;;;;4988203;28;20061;-72
2022/09/05 02:57:24;;;;;;;5.35;3.03;;;19.00;66.30;;;;;;4989156;28;21552;-73
2022/09/05 03:00:29;;;;;;;7.55;3.22;;;19.00;66.10;;;;;;4984054;28;20030;-72
2022/09/05 03:03:39;;;;;;;8.63;3.55;;;19.00;65.90;;;;;;4961154;28;20046;-72
2022/09/05 03:06:34;;;;;;;7.38;3.08;;;19.10;65.90;;;;;;4978143;28;20046;-72
2022/09/05 03:09:27;;;;;;;5.45;3.15;;;19.10;65.90;;;;;;4983130;28;20474;-73
2022/09/05 03:12:33;;;;;;;5.05;2.78;;;19.10;65.70;;;;;;4987776;28;20066;-72
2022/09/05 03:15:39;;;;;;;8.02;3.20;;;19.20;65.50;;;;;;4987181;28;20502;-74
2022/09/05 03:18:11;;;;;;;7.95;3.83;;;19.20;65.30;;;;;;4973799;28;20031;-73
2022/09/05 03:20:54;;;;;;;11.15;4.25;;;19.20;65.10;;;;;;4970643;28;20057;-73
2022/09/05 03:23:57;;;;;;;7.85;3.40;;;19.30;65.10;;;;;;4983646;28;20402;-75
2022/09/05 03:26:47;;;;;;;5.30;2.80;;;19.30;65.00;;;;;;4979790;28;20045;-74
2022/09/05 03:29:32;;;;;;;5.60;3.00;;;19.40;64.80;;;;;;4986171;28;20134;-73
2022/09/05 03:32:15;;;;;;;5.30;2.97;;;19.50;64.60;;;;;;4987094;28;20054;-73
2022/09/05 03:35:25;;;;;;;5.05;2.95;;;19.50;64.80;;;;;;4979701;28;20077;-72
2022/09/05 03:38:10;;;;;;;7.00;3.05;;;19.40;65.00;;;;;;4983572;28;20050;-73
2022/09/05 03:40:50;;;;;;;;;;;19.40;65.20;;;;;;4962656;28;20042;-74
2022/09/05 03:43:44;;;;;;;5.57;2.63;;;19.50;65.20;;;;;;4961900;28;19981;-73
2022/09/05 03:46:20;;;;;;;7.63;2.90;;;19.50;65.00;;;;;;4966641;28;20474;-73
2022/09/05 03:48:49;;;;;;;5.07;3.10;;;19.50;64.70;;;;;;4967276;28;20039;-73
2022/09/05 03:51:36;;;;;;;7.65;3.08;;;19.60;64.40;;;;;;4963130;28;20045;-73
2022/09/05 03:54:13;;;;;;;6.22;3.00;;;19.80;64.00;;;;;;4965889;28;20109;-73
2022/09/05 03:56:48;;;;;;;8.75;3.05;;;19.90;63.70;;;;;;4967167;28;20387;-73
2022/09/05 03:59:36;;;;;;;;;;;20.00;63.10;;;;;;4967342;28;20161;-73
2022/09/05 04:02:08;;;;;;;6.30;2.70;;;20.10;62.80;;;;;;4966964;28;20453;-72
2022/09/05 04:04:42;;;;;;;6.75;2.67;;;20.10;62.60;;;;;;4966734;28;20050;-75
2022/09/05 04:07:19;;;;;;;5.68;2.85;;;20.20;62.40;;;;;;4962324;28;20053;-72
2022/09/05 04:09:49;;;;;;;6.25;3.00;;;20.30;62.20;;;;;;4967178;28;20034;-73
2022/09/05 04:12:20;;;;;;;8.00;2.75;;;20.30;62.00;;;;;;4966899;28;20153;-75
2022/09/05 04:14:52;;;;;;;6.85;3.03;;;20.30;61.90;;;;;;4966685;28;20042;-73
2022/09/05 04:17:41;;;;;;;6.70;2.92;;;20.30;61.90;;;;;;4962999;28;20065;-73
2022/09/05 04:20:36;;;;;;;7.07;2.75;;;20.30;61.80;;;;;;4965217;28;20558;-72
2022/09/05 04:23:30;;;;;;;5.63;2.97;;;20.30;61.80;;;;;;4963488;28;20046;-73
2022/09/05 04:26:33;;;;;;;6.03;2.50;;;20.30;61.80;;;;;;4958007;28;20097;-74
2022/09/05 04:29:34;;;;;;;5.55;2.90;;;20.30;62.00;;;;;;4954659;28;20169;-72
2022/09/05 04:32:37;;;;;;;4.60;2.38;;;20.20;62.00;;;;;;4954544;28;20046;-76
2022/09/05 04:35:27;;;;;;;6.13;2.63;;;20.10;62.00;;;;;;4955349;28;20042;-73
2022/09/05 04:38:15;;;;;;;8.48;2.95;;;20.20;61.90;;;;;;4958168;28;20047;-72
2022/09/05 04:40:53;;;;;;;6.78;3.10;;;20.10;61.80;;;;;;4956429;28;20031;-74
2022/09/05 04:43:48;;;;;;;8.63;3.55;;;20.10;62.00;;;;;;4959899;28;20109;-73
2022/09/05 04:46:34;;;;;;;9.80;3.17;;;20.20;61.70;;;;;;4960834;28;20042;-72
2022/09/05 04:49:09;;;;;;;5.32;3.10;;;20.10;61.60;;;;;;4961498;28;20032;-72
2022/09/05 04:52:12;;;;;;;6.07;3.17;;;20.20;61.60;;;;;;4962643;28;20251;-72
2022/09/05 04:55:05;;;;;;;6.72;3.45;;;20.10;61.60;;;;;;4959275;28;20419;-72
2022/09/05 04:57:38;;;;;;;6.85;3.55;;;20.10;61.80;;;;;;4965176;28;20027;-72
2022/09/05 05:00:41;;;;;;;8.47;4.03;;;20.10;62.10;;;;;;4964692;28;20054;-74
2022/09/05 05:03:13;;;;;;;7.25;3.47;;;20.00;62.40;;;;;;4981666;28;20478;-73
2022/09/05 05:05:48;;;;;;;6.75;2.90;;;20.00;62.50;;;;;;4980226;28;20035;-73
2022/09/05 05:08:17;;;;;;;7.63;2.70;;;19.90;62.70;;;;;;4983552;28;20494;-72
2022/09/05 05:11:19;;;;;;;8.73;2.65;;;19.90;62.90;;;;;;4982266;28;20041;-72
2022/09/05 05:13:54;;;;;;;5.47;2.72;;;19.80;63.10;;;;;;4971495;28;20043;-73
2022/09/05 05:16:25;;;;;;;6.20;2.55;;;19.80;63.30;;;;;;4986057;28;20062;-75
2022/09/05 05:18:57;;;;;;;6.65;2.70;;;19.80;63.40;;;;;;4986983;28;20307;-72
2022/09/05 05:21:29;;;;;;;7.97;2.67;;;19.90;63.30;;;;;;4986072;28;20038;-72
2022/09/05 05:24:06;;;;;;;5.95;2.97;;;19.90;63.00;;;;;;4981113;28;20053;-73
2022/09/05 05:27:13;;;;;;;7.25;2.42;;;19.90;63.00;;;;;;4984809;28;20481;-72
2022/09/05 05:30:10;;;;;;;5.55;2.58;;;19.90;63.00;;;;;;4961088;28;20035;-73
2022/09/05 05:32:41;;;;;;;4.38;2.33;;;19.90;63.10;;;;;;4968791;28;20073;-72
2022/09/05 05:35:19;;;;;;;5.30;2.25;;;19.90;63.20;;;;;;4976541;28;20371;-73
2022/09/05 05:37:50;;;;;;;4.95;2.50;;;19.90;63.20;;;;;;4967427;28;20057;-72
2022/09/05 05:40:16;;;;;;;8.15;3.08;;;19.90;63.50;;;;;;4978967;28;20636;-74
2022/09/05 05:42:43;;;;;;;10.90;3.60;;;19.90;63.70;;;;;;4966670;28;20592;-72
2022/09/05 05:45:17;;;;;;;8.25;3.08;;;19.90;63.70;;;;;;4963992;28;20035;-73
2022/09/05 05:47:46;;;;;;;9.07;3.53;;;19.90;63.70;;;;;;4964917;28;20506;-75
2022/09/05 05:50:32;;;;;;;6.93;3.25;;;19.90;63.60;;;;;;4963467;28;20054;-76
2022/09/05 05:53:19;;;;;;;9.63;3.60;;;20.00;63.30;;;;;;4970456;28;20047;-74
2022/09/05 05:56:01;;;;;;;8.88;3.40;;;20.00;63.40;;;;;;4969880;28;20045;-74
2022/09/05 05:58:41;;;;;;;10.88;3.47;;;20.00;63.70;;;;;;4985994;28;20414;-74
2022/09/05 06:01:44;;;;;;;8.45;2.90;;;20.00;63.80;;;;;;4988374;28;20467;-74
2022/09/05 06:04:31;;;;;;;8.18;3.15;;;20.10;63.60;;;;;;4986738;28;20045;-74
2022/09/05 06:07:17;;;;;;;8.77;3.53;;;20.10;63.60;;;;;;4983305;28;20058;-74
2022/09/05 06:09:57;;;;;;;7.30;3.35;;;20.20;63.60;;;;;;4987771;28;20045;-75
2022/09/05 06:13:00;;;;;;;8.57;3.63;;;20.30;63.70;;;;;;4984704;28;20038;-74
2022/09/05 06:15:26;;;;;;;7.57;4.30;;;20.30;63.70;;;;;;4981183;28;20054;-75
2022/09/05 06:18:29;;;;;;;11.98;5.70;;;20.40;63.60;;;;;;4989716;28;20047;-73
2022/09/05 06:21:10;;;;;;;7.40;3.83;;;20.50;63.70;;;;;;4980503;28;20081;-73
2022/09/05 06:23:51;;;;;;;9.77;3.95;;;20.60;63.80;;;;;;4962110;28;20039;-72
2022/09/05 06:26:40;;;;;;;8.50;4.00;;;20.60;63.70;;;;;;4966927;28;20121;-72
2022/09/05 06:29:27;;;;;;;8.70;4.13;;;20.60;63.40;;;;;;4963378;28;20368;-73
2022/09/05 06:32:13;;;;;;;10.82;4.93;;;20.60;63.40;;;;;;4959912;28;20054;-72
2022/09/05 06:34:57;;;;;;;15.40;4.25;;;20.70;63.20;;;;;;4984158;28;20058;-72
2022/09/05 06:37:42;;;;;;;9.70;3.60;;;20.70;63.00;;;;;;4979509;28;20477;-72
2022/09/05 06:40:36;;;;;;;7.15;3.40;;;20.70;62.90;;;;;;4985374;28;20487;-74
2022/09/05 06:43:07;;;;;;;9.37;3.50;;;20.80;63.20;;;;;;4986791;28;20044;-72
2022/09/05 06:46:09;;;;;;;6.65;3.25;;;20.80;63.10;;;;;;4986203;28;20105;-73
2022/09/05 06:48:44;;;;;;;8.93;2.95;;;20.80;63.20;;;;;;4964131;28;20042;-73
2022/09/05 06:51:15;;;;;;;7.65;2.88;;;20.80;63.20;;;;;;4961698;28;20115;-73
2022/09/05 06:54:06;;;;;;;5.68;2.60;;;20.80;63.00;;;;;;4964382;28;20643;-74
2022/09/05 06:56:46;;;;;;;6.25;2.80;;;20.90;63.20;;;;;;4983220;28;20386;-78
2022/09/05 06:59:45;;;;;;;7.93;2.80;;;21.00;63.30;;;;;;4986212;28;20038;-81
2022/09/05 07:02:19;;;;;;;6.40;2.72;;;21.30;61.90;;;;;;4983913;28;20085;-80
2022/09/05 07:05:21;;;;;;;5.70;2.55;;;21.60;61.10;;;;;;5003370;28;20062;-79
2022/09/05 07:08:14;;;;;;;6.35;2.70;;;21.90;60.70;;;;;;4995827;28;20038;-77
2022/09/05 07:10:48;;;;;;;8.32;3.08;;;22.20;58.60;;;;;;4973868;28;20042;-78
2022/09/05 07:13:23;;;;;;;8.00;2.78;;;22.60;57.80;;;;;;4965193;28;20059;-80
2022/09/05 07:16:00;;;;;;;9.75;3.05;;;22.60;56.70;;;;;;4969802;28;20054;-78
2022/09/05 07:18:36;;;;;;;9.45;2.90;;;22.80;56.20;;;;;;4962756;28;20125;-78
2022/09/05 07:21:19;;;;;;;7.05;3.00;;;22.90;56.00;;;;;;4966085;28;20730;-78
2022/09/05 07:24:00;;;;;;;7.82;2.67;;;22.90;56.70;;;;;;4965797;28;20089;-78
2022/09/05 07:26:27;;;;;;;7.72;2.70;;;23.00;56.00;;;;;;4994375;28;20050;-78
2022/09/05 07:28:59;;;;;;;7.97;3.03;;;23.30;55.20;;;;;;4986715;28;20034;-78
2022/09/05 07:31:26;;;;;;;7.82;3.22;;;23.60;54.50;;;;;;4986243;28;20038;-77
2022/09/05 07:34:17;;;;;;;6.13;2.63;;;23.90;53.80;;;;;;4986983;28;20092;-78
2022/09/05 07:36:46;;;;;;;9.88;3.30;;;24.10;53.60;;;;;;4968116;28;20035;-78
2022/09/05 07:39:17;;;;;;;9.07;2.78;;;24.40;52.80;;;;;;4967630;28;20066;-79
2022/09/05 07:41:51;;;;;;;6.20;2.80;;;24.60;52.60;;;;;;4985777;28;20038;-78
2022/09/05 07:44:33;;;;;;;10.60;3.20;;;25.00;52.40;;;;;;4984454;28;20116;-79
2022/09/05 07:47:07;;;;;;;9.90;3.25;;;25.10;51.60;;;;;;4984740;28;20624;-80
2022/09/05 07:49:36;;;;;;;8.13;2.97;;;25.50;51.00;;;;;;4984320;28;20048;-80
2022/09/05 07:52:14;;;;;;;6.95;2.63;;;25.70;50.10;;;;;;4982138;28;20034;-78
2022/09/05 07:54:40;;;;;;;11.73;2.75;;;25.80;49.80;;;;;;4985850;28;20038;-80
2022/09/05 07:57:09;;;;;;;6.57;2.25;;;25.90;49.80;;;;;;4979067;28;20838;-77
2022/09/05 07:59:39;;;;;;;4.28;2.35;;;25.80;49.20;;;;;;4978693;28;20049;-78
2022/09/05 08:02:08;;;;;;;8.35;2.58;;;25.70;50.20;;;;;;4984955;28;20031;-77
2022/09/05 08:04:36;;;;;;;7.53;2.40;;;25.50;50.50;;;;;;4984337;28;20146;-78
2022/09/05 08:07:14;;;;;;;9.95;2.40;;;25.40;51.40;;;;;;4980888;28;20046;-78
2022/09/05 08:09:50;;;;;;;9.45;2.70;;;25.40;51.20;;;;;;4983053;28;20113;-81
2022/09/05 08:12:42;;;;;;;6.70;2.58;;;25.40;51.80;;;;;;4983829;28;20046;-78
2022/09/05 08:15:17;;;;;;;7.72;2.58;;;25.30;51.70;;;;;;4982336;28;20042;-78
2022/09/05 08:18:13;;;;;;;7.95;2.95;;;25.30;51.50;;;;;;4985665;28;20402;-78
2022/09/05 08:20:44;;;;;;;7.38;2.80;;;25.20;52.20;;;;;;4983966;28;20085;-81
2022/09/05 08:23:28;;;;;;;5.50;2.50;;;25.20;51.40;;;;;;4985442;28;20042;-80
2022/09/05 08:26:11;;;;;;;7.27;2.60;;;25.30;52.50;;;;;;4984915;28;20027;-78
2022/09/05 08:29:15;;;;;;;6.43;2.60;;;25.20;51.70;;;;;;4967870;28;20592;-79
2022/09/05 08:32:01;;;;;;;8.07;2.40;;;25.20;51.80;;;;;;4964244;28;20590;-80
2022/09/05 08:34:53;;;;;;;7.30;2.03;;;25.30;52.30;;;;;;4960442;28;20055;-81
2022/09/05 08:37:24;;;;;;;6.25;2.92;;;25.30;52.20;;;;;;4966407;28;20035;-78
2022/09/05 08:39:58;;;;;;;6.88;2.50;;;25.30;52.00;;;;;;4964402;28;20031;-78
2022/09/05 08:42:35;;;;;;;6.05;2.28;;;25.30;52.40;;;;;;4963151;28;20045;-77
2022/09/05 08:45:16;;;;;;;6.75;2.70;;;25.50;51.70;;;;;;4965012;28;20062;-76
2022/09/05 08:47:54;;;;;;;6.78;2.38;;;25.60;51.80;;;;;;4983776;28;20042;-80
2022/09/05 08:50:38;;;;;;;6.70;2.58;;;25.90;51.00;;;;;;4983465;28;20041;-76
2022/09/05 08:53:21;;;;;;;7.00;2.70;;;26.10;50.10;;;;;;4982912;28;20058;-77
2022/09/05 08:56:19;;;;;;;5.55;2.65;;;26.10;50.20;;;;;;4984465;28;20503;-77
2022/09/05 08:59:22;;;;;;;7.45;2.28;;;26.10;49.90;;;;;;4955069;28;20430;-77
2022/09/05 09:02:10;;;;;;;7.15;3.03;;;26.10;50.20;;;;;;4973748;28;20574;-78
2022/09/05 09:04:47;;;;;;;6.85;2.80;;;26.00;50.10;;;;;;4982703;28;20058;-79
2022/09/05 09:07:31;;;;;;;8.90;3.20;;;25.90;50.40;;;;;;4984369;28;20066;-76
2022/09/05 09:10:03;;;;;;;7.10;2.72;;;25.80;50.50;;;;;;4982630;28;20030;-78
2022/09/05 09:12:48;;;;;;;8.23;2.80;;;26.00;50.80;;;;;;4964905;28;20395;-77
2022/09/05 09:15:40;;;;;;;7.35;2.45;;;26.10;50.70;;;;;;4960020;28;20042;-77
2022/09/05 09:18:18;;;;;;;8.02;2.75;;;26.10;50.60;;;;;;4972464;28;20054;-77
2022/09/05 09:20:51;;;;;;;6.75;2.55;;;26.20;50.60;;;;;;4964337;28;20045;-77
2022/09/05 09:23:47;;;;;;;6.78;2.30;;;26.20;51.10;;;;;;4970080;28;20050;-77
2022/09/05 09:26:20;;;;;;;6.18;2.67;;;26.30;50.00;;;;;;4982982;28;20100;-76
2022/09/05 09:28:51;;;;;;;5.03;2.35;;;26.30;50.20;;;;;;4968212;28;20031;-76
2022/09/05 09:31:25;;;;;;;8.77;2.70;;;26.30;50.40;;;;;;4965692;28;20043;-77
2022/09/05 09:34:14;;;;;;;8.38;2.83;;;26.40;50.00;;;;;;4968847;28;20438;-76
2022/09/05 09:37:11;;;;;;;7.90;2.63;;;26.40;50.00;;;;;;4987156;28;20068;-77
2022/09/05 09:40:00;;;;;;;6.65;2.40;;;26.50;50.80;;;;;;4973775;28;20031;-77
2022/09/05 09:42:56;;;;;;;5.65;2.45;;;26.60;50.10;;;;;;4987351;28;20474;-76
2022/09/05 09:45:50;;;;;;;7.63;2.83;;;26.60;49.60;;;;;;4970018;28;20064;-79
2022/09/05 09:48:35;;;;;;;9.27;2.80;;;26.80;49.40;;;;;;4972793;28;20193;-77
2022/09/05 09:51:18;;;;;;;9.00;3.10;;;26.90;49.50;;;;;;4967535;28;20077;-77
2022/09/05 09:54:02;;;;;;;8.23;2.70;;;27.00;49.50;;;;;;4965881;28;20574;-77
2022/09/05 09:56:51;;;;;;;6.18;2.70;;;26.90;48.20;;;;;;4969077;28;20043;-78
2022/09/05 09:59:35;;;;;;;6.90;2.50;;;27.00;49.10;;;;;;4967771;28;20067;-77
2022/09/05 10:02:14;;;;;;;7.30;2.78;;;27.00;49.80;;;;;;4969116;28;20038;-78
2022/09/05 10:05:08;;;;;;;10.65;2.88;;;27.10;48.90;;;;;;4973124;28;20643;-77
2022/09/05 10:07:51;;;;;;;10.50;3.05;;;27.00;47.90;;;;;;4987655;28;20515;-77
2022/09/05 10:10:54;;;;;;;6.57;3.10;;;26.80;48.50;;;;;;4987129;28;20030;-78
2022/09/05 10:13:24;;;;;;;11.38;2.55;;;27.00;48.40;;;;;;4985976;28;20053;-79
2022/09/05 10:16:11;;;;;;;10.40;3.13;;;26.90;48.60;;;;;;4987013;28;20049;-79
2022/09/05 10:18:55;;;;;;;9.40;2.72;;;26.90;48.80;;;;;;4984122;28;20043;-79
2022/09/05 10:21:45;;;;;;;9.27;2.75;;;27.00;48.80;;;;;;4983344;28;20118;-78
2022/09/05 10:24:23;;;;;;;29.65;6.25;;;27.00;48.70;;;;;;4982078;28;20058;-78
2022/09/05 10:27:22;;;;;;;7.78;2.65;;;27.10;48.60;;;;;;4988091;28;20073;-79
2022/09/05 10:29:52;;;;;;;6.28;2.38;;;27.30;48.00;;;;;;4967134;28;20039;-79
2022/09/05 10:32:32;;;;;;;9.55;2.88;;;27.20;48.50;;;;;;4985323;28;20046;-81
2022/09/05 10:34:59;;;;;;;9.60;2.83;;;27.30;48.20;;;;;;4984860;28;20053;-80
2022/09/05 10:37:43;;;;;;;10.00;2.85;;;27.50;48.40;;;;;;4988071;28;20049;-80
2022/09/05 10:40:11;;;;;;;;;;;27.60;47.00;;;;;;4983080;28;20084;-78
2022/09/05 10:42:52;;;;;;;6.63;2.70;;;27.70;47.20;;;;;;4978163;28;19914;-78
2022/09/05 10:45:29;;;;;;;8.00;2.80;;;27.70;47.70;;;;;;4981589;28;20038;-77
2022/09/05 10:48:20;;;;;;;5.65;2.63;;;27.80;46.30;;;;;;4979291;28;20042;-77
2022/09/05 10:51:29;;;;;;;9.10;2.65;;;27.90;46.20;;;;;;4978718;28;20045;-77
2022/09/05 10:54:06;;;;;;;10.05;3.00;;;27.90;45.70;;;;;;4982165;28;20451;-77
2022/09/05 10:56:41;;;;;;;6.68;2.53;;;28.10;46.40;;;;;;4981640;28;20066;-78
2022/09/05 10:59:30;;;;;;;9.02;2.53;;;28.30;45.80;;;;;;4981395;28;20041;-77
2022/09/05 11:02:21;;;;;;;6.18;2.63;;;28.30;45.80;;;;;;4985293;28;20026;-78
2022/09/05 11:05:15;;;;;;;8.05;2.83;;;28.50;45.90;;;;;;4984328;28;20034;-77
2022/09/05 11:07:47;;;;;;;6.18;2.38;;;28.70;45.00;;;;;;4983751;28;20034;-81
2022/09/05 11:10:22;;;;;;;7.35;2.58;;;28.60;45.30;;;;;;4984452;28;20069;-79
2022/09/05 11:13:13;;;;;;;6.43;2.30;;;29.00;44.80;;;;;;4982471;28;20096;-80
2022/09/05 11:15:41;;;;;;;6.45;2.30;;;29.30;44.00;;;;;;4978438;28;20116;-80
2022/09/05 11:18:37;;;;;;;7.72;2.45;;;29.80;43.90;;;;;;4986146;28;20043;-81
2022/09/05 11:21:30;;;;;;;8.43;3.00;;;30.10;43.10;;;;;;4982410;28;20073;-82
2022/09/05 11:24:17;;;;;;;6.20;2.42;;;30.50;41.90;;;;;;4985305;28;20038;-80
2022/09/05 11:27:04;;;;;;;8.07;2.90;;;30.60;41.50;;;;;;4958381;28;20034;-81
2022/09/05 11:29:57;;;;;;;8.90;3.00;;;30.70;40.20;;;;;;4961840;28;20118;-79
2022/09/05 11:32:53;;;;;;;5.30;2.22;;;30.80;40.80;;;;;;4949772;28;20039;-79
2022/09/05 11:35:32;;;;;;;8.05;2.25;;;30.60;40.10;;;;;;4958394;28;20050;-79
2022/09/05 11:37:58;;;;;;;7.55;2.50;;;30.40;40.00;;;;;;4960983;28;20035;-80
2022/09/05 11:40:57;;;;;;;6.13;2.30;;;30.40;40.30;;;;;;4959438;28;20035;-80
2022/09/05 11:43:31;;;;;;;6.03;2.70;;;30.40;40.80;;;;;;4948555;28;20106;-79
2022/09/05 11:46:24;;;;;;;6.50;2.20;;;30.40;40.60;;;;;;4966865;28;20049;-78
2022/09/05 11:49:15;;;;;;;5.25;2.40;;;30.20;40.50;;;;;;4961532;28;20063;-80
2022/09/05 11:52:00;;;;;;;5.50;2.55;;;30.30;39.60;;;;;;4968568;28;20041;-81
2022/09/05 11:55:08;;;;;;;5.75;2.00;;;30.50;39.50;;;;;;4971528;28;20363;-79
2022/09/05 11:57:52;;;;;;;6.30;2.00;;;30.50;39.20;;;;;;4985488;28;20031;-80
2022/09/05 12:00:21;;;;;;;4.32;2.28;;;30.60;39.10;;;;;;4974871;28;20051;-79
2022/09/05 12:03:07;;;;;;;5.13;2.10;;;30.50;39.70;;;;;;4971666;28;20038;-79
2022/09/05 12:06:07;;;;;;;5.80;2.20;;;30.60;38.30;;;;;;4961769;28;20102;-79
2022/09/05 12:08:51;;;;;;;5.85;2.40;;;30.90;39.20;;;;;;4962403;28;20039;-78
2022/09/05 12:11:26;;;;;;;;;;;31.10;38.60;;;;;;4965854;28;20614;-82
2022/09/05 12:14:22;;;;;;;3.60;2.00;;;31.10;38.80;;;;;;4965482;28;20382;-81
2022/09/05 12:16:54;;;;;;;7.15;1.98;;;31.30;37.20;;;;;;4963943;28;20118;-81
2022/09/05 12:19:40;;;;;;;4.88;1.85;;;31.30;37.80;;;;;;4963216;28;20046;-82
2022/09/05 12:22:18;;;;;;;4.35;2.03;;;31.30;37.60;;;;;;4970631;28;20401;-80
2022/09/05 12:25:10;;;;;;;5.18;2.10;;;31.00;37.80;;;;;;4957633;28;20534;-80
2022/09/05 12:27:37;;;;;;;7.45;2.15;;;31.00;37.60;;;;;;4970111;28;20047;-77
2022/09/05 12:30:12;;;;;;;5.38;1.90;;;30.80;37.60;;;;;;4964221;28;20467;-79
2022/09/05 12:32:49;;;;;;;4.78;2.10;;;30.70;38.10;;;;;;4981426;28;20524;-78
2022/09/05 12:35:33;;;;;;;4.60;1.95;;;30.50;38.20;;;;;;4981248;28;20034;-79
2022/09/05 12:38:07;;;;;;;4.82;1.80;;;30.40;39.10;;;;;;4983585;28;20042;-79
2022/09/05 12:40:40;;;;;;;3.40;1.80;;;30.30;39.30;;;;;;4964791;28;20050;-79
2022/09/05 12:43:10;;;;;;;6.00;2.47;;;30.30;39.70;;;;;;4963822;28;20430;-78
2022/09/05 12:45:48;;;;;;;4.85;2.00;;;30.20;39.50;;;;;;4978113;28;20513;-79
2022/09/05 12:48:21;;;;;;;6.03;2.30;;;30.20;39.70;;;;;;4984788;28;20039;-78
2022/09/05 12:50:53;;;;;;;3.60;2.13;;;30.30;39.80;;;;;;4982416;28;20030;-80
2022/09/05 12:53:20;;;;;;;8.35;2.30;;;30.30;40.10;;;;;;4972970;28;20055;-80
2022/09/05 12:56:02;;;;;;;4.20;2.30;;;30.40;39.40;;;;;;4981654;28;20050;-81
2022/09/05 12:58:30;;;;;;;3.53;1.98;;;30.40;40.30;;;;;;4976372;28;20039;-80
2022/09/05 13:01:16;;;;;;;5.03;2.67;;;30.50;40.60;;;;;;4981875;28;20510;-80
2022/09/05 13:03:58;;;;;;;4.40;2.60;;;30.60;40.00;;;;;;4964855;28;20062;-81
2022/09/05 13:06:29;;;;;;;4.85;1.92;;;30.70;39.30;;;;;;4958974;28;20102;-81
2022/09/05 13:09:18;;;;;;;6.65;2.13;;;30.70;39.50;;;;;;4963807;28;20050;-78
2022/09/05 13:11:50;;;;;;;4.95;1.75;;;30.50;39.20;;;;;;4965395;28;20053;-82
2022/09/05 13:14:39;;;;;;;6.35;2.20;;;30.40;39.70;;;;;;4981636;28;20038;-81
2022/09/05 13:17:07;;;;;;;7.45;2.20;;;30.40;40.10;;;;;;4984243;28;20101;-81
2022/09/05 13:19:42;;;;;;;4.90;2.40;;;30.30;40.50;;;;;;4987194;28;20134;-81
2022/09/05 13:22:13;;;;;;;6.38;2.38;;;30.20;40.80;;;;;;4983985;28;20503;-79
2022/09/05 13:24:42;;;;;;;5.60;2.40;;;30.10;40.90;;;;;;4983378;28;20038;-80
2022/09/05 13:27:14;;;;;;;5.70;2.45;;;29.90;41.90;;;;;;4993030;28;20037;-80
2022/09/05 13:29:52;;;;;;;8.27;2.42;;;29.80;42.00;;;;;;4986143;28;20085;-79
2022/09/05 13:32:42;;;;;;;5.25;2.25;;;29.90;41.80;;;;;;4987416;28;20038;-78
2022/09/05 13:35:40;;;;;;;5.13;2.55;;;30.10;41.70;;;;;;4984930;28;20046;-80
2022/09/05 13:38:14;;;;;;;5.95;2.40;;;30.10;41.10;;;;;;4980350;28;20037;-82
2022/09/05 13:40:48;;;;;;;4.43;2.22;;;30.10;41.50;;;;;;4960978;28;20394;-81
2022/09/05 13:43:25;;;;;;;5.63;2.38;;;30.20;41.40;;;;;;4967179;28;20134;-79
2022/09/05 13:46:02;;;;;;;5.50;2.20;;;30.10;41.30;;;;;;4967579;28;20559;-81
2022/09/05 13:48:49;;;;;;;8.23;2.50;;;30.10;41.30;;;;;;4983798;28;20038;-78
2022/09/05 13:51:29;;;;;;;4.55;2.00;;;30.20;40.90;;;;;;4978440;28;20057;-81
2022/09/05 13:54:11;;;;;;;4.43;2.10;;;30.00;41.50;;;;;;4981720;28;20482;-80
2022/09/05 13:56:49;;;;;;;4.63;2.05;;;30.10;40.70;;;;;;4979374;28;20041;-80
2022/09/05 13:59:20;;;;;;;5.85;2.28;;;30.30;40.50;;;;;;4978408;28;20092;-82
2022/09/05 14:02:35;;;;;;;5.38;2.20;;;30.30;40.90;;;;;;4978229;28;20038;-80
2022/09/05 14:05:12;;;;;;;5.82;2.65;;;30.40;40.50;;;;;;4960638;28;20046;-80
2022/09/05 14:08:16;;;;;;;4.63;2.40;;;30.30;40.80;;;;;;4958288;28;20086;-81
2022/09/05 14:11:06;;;;;;;6.28;2.40;;;30.30;41.10;;;;;;4976861;28;20045;-78